Time;durP1;ratioP1;P1;durP2;ratioP2;P2;SDS_P1;SDS_P2;PMS_P1;PMS_P2;Temp;Humidity;BMP_temperature;BMP_pressure;BME280_temperature;BME280_humidity;BME280_pressure;Samples;Min_cycle;Max_cycle;Signal;HPM_P1;HPM_P2
2022/01/13 00:00:38;;;;;;;11.03;8.00;;;;;;;;;;4921327;29;20186;-77
2022/01/13 00:03:04;;;;;;;13.20;8.03;;;;;;;;;;4937114;29;20666;-77
2022/01/13 00:05:31;;;;;;;11.80;7.87;;;;;;;;;;4928818;23;20229;-78
2022/01/13 00:07:58;;;;;;;11.90;7.50;;;;;;;;;;4906613;29;20637;-77
2022/01/13 00:10:27;;;;;;;11.80;7.83;;;;;;;;;;4905964;29;20277;-78
2022/01/13 00:13:05;;;;;;;11.07;7.20;;;;;;;;;;4921960;29;20177;-78
2022/01/13 00:15:50;;;;;;;12.47;8.50;;;;;;;;;;4921228;29;20200;-78
2022/01/13 00:18:37;;;;;;;11.60;7.50;;;;;;;;;;4908188;29;20651;-77
2022/01/13 00:23:51;;;;;;;13.67;8.73;;;;;;;;;;4924258;29;20268;-78
2022/01/13 00:26:23;;;;;;;12.50;9.10;;;;;;;;;;4906003;29;20198;-78
2022/01/13 00:28:51;;;;;;;13.60;8.67;;;;;;;;;;4906538;29;20185;-77
2022/01/13 00:31:21;;;;;;;12.73;8.30;;;;;;;;;;4921242;29;20206;-77
2022/01/13 00:33:50;;;;;;;12.70;8.73;;;;;;;;;;4920849;29;20170;-78
2022/01/13 00:36:16;;;;;;;11.20;7.70;;;;;;;;;;4937994;29;20200;-78
2022/01/13 00:38:42;;;;;;;13.07;8.20;;;;;;;;;;4920587;29;20182;-78
2022/01/13 00:41:09;;;;;;;11.10;7.73;;;;;;;;;;4921112;29;20192;-78
2022/01/13 00:43:42;;;;;;;13.17;8.17;;;;;;;;;;4920652;29;20187;-79
2022/01/13 00:46:09;;;;;;;12.13;8.33;;;;;;;;;;4905910;29;20206;-78
2022/01/13 00:48:35;;;;;;;13.50;8.27;;;;;;;;;;4920739;29;20185;-78
2022/01/13 00:51:01;;;;;;;13.67;8.60;;;;;;;;;;4905197;29;20208;-78
2022/01/13 00:53:27;;;;;;;11.10;7.37;;;;;;;;;;4904998;29;20178;-78
2022/01/13 00:55:59;;;;;;;13.67;8.50;;;;;;;;;;4920743;29;20293;-78
2022/01/13 00:58:27;;;;;;;11.63;7.90;;;;;;;;;;4920272;29;20202;-79
2022/01/13 01:00:53;;;;;;;12.87;7.73;;;;;;;;;;4904760;29;20276;-78
2022/01/13 01:03:19;;;;;;;11.53;8.27;;;;;;;;;;4920242;29;20181;-78
2022/01/13 01:05:45;;;;;;;11.93;7.23;;;;;;;;;;4904284;29;20248;-79
2022/01/13 01:08:12;;;;;;;13.43;8.27;;;;;;;;;;4920214;29;20233;-78
2022/01/13 01:10:38;;;;;;;12.00;7.93;;;;;;;;;;4920883;29;20185;-78
2022/01/13 01:13:12;;;;;;;11.87;7.63;;;;;;;;;;4920698;29;20182;-78
2022/01/13 01:15:39;;;;;;;10.27;7.50;;;;;;;;;;4919886;29;20274;-79
2022/01/13 01:18:17;;;;;;;10.27;7.70;;;;;;;;;;4919981;29;20283;-78
2022/01/13 01:21:17;;;;;;;13.83;9.20;;;;;;;;;;4905672;29;20641;-78
2022/01/13 01:23:56;;;;;;;12.47;8.00;;;;;;;;;;4923845;29;20186;-78
2022/01/13 01:28:57;;;;;;;11.70;7.97;;;;;;;;;;4936592;29;20186;-78
2022/01/13 01:31:29;;;;;;;13.13;7.83;;;;;;;;;;4919823;29;20212;-78
2022/01/13 01:34:16;;;;;;;12.30;7.63;;;;;;;;;;4919515;29;20181;-78
2022/01/13 01:36:42;;;;;;;10.83;8.30;;;;;;;;;;4906574;29;20201;-78
2022/01/13 01:39:09;;;;;;;12.53;8.20;;;;;;;;;;4919720;29;20182;-78
2022/01/13 01:41:36;;;;;;;12.40;8.40;;;;;;;;;;4919300;29;20173;-78
2022/01/13 01:44:15;;;;;;;12.93;8.20;;;;;;;;;;4903828;29;20182;-79
2022/01/13 01:46:45;;;;;;;11.63;8.27;;;;;;;;;;4919676;29;20283;-78
2022/01/13 01:49:21;;;;;;;12.63;8.90;;;;;;;;;;4936501;29;20181;-78
2022/01/13 01:51:48;;;;;;;11.90;7.97;;;;;;;;;;4919192;29;20203;-77
2022/01/13 01:54:14;;;;;;;13.47;8.23;;;;;;;;;;4903464;29;20649;-79
2022/01/13 01:56:41;;;;;;;12.10;8.03;;;;;;;;;;4903699;29;20247;-79
2022/01/13 01:59:08;;;;;;;11.13;7.80;;;;;;;;;;4903330;29;20217;-78
2022/01/13 02:01:34;;;;;;;12.73;8.10;;;;;;;;;;4903873;29;20192;-78
2022/01/13 02:04:00;;;;;;;13.53;8.63;;;;;;;;;;4903529;29;20605;-78
2022/01/13 02:06:26;;;;;;;14.80;8.53;;;;;;;;;;4918749;29;20601;-79
2022/01/13 02:08:52;;;;;;;11.87;7.67;;;;;;;;;;4919258;29;20656;-78
2022/01/13 02:11:18;;;;;;;12.37;8.17;;;;;;;;;;4919045;29;20281;-79
2022/01/13 02:13:51;;;;;;;14.97;7.87;;;;;;;;;;4903370;29;20182;-79
2022/01/13 02:18:55;;;;;;;10.97;7.97;;;;;;;;;;4936183;29;20174;-79
2022/01/13 02:21:23;;;;;;;11.27;7.67;;;;;;;;;;4903268;29;20191;-78
2022/01/13 02:23:49;;;;;;;14.33;8.37;;;;;;;;;;4935616;29;20180;-78
2022/01/13 02:26:15;;;;;;;13.07;8.13;;;;;;;;;;4918685;29;20205;-78
2022/01/13 02:28:43;;;;;;;11.93;7.67;;;;;;;;;;4903077;29;20718;-78
2022/01/13 02:31:09;;;;;;;11.13;7.47;;;;;;;;;;4918794;29;20212;-79
2022/01/13 02:33:35;;;;;;;11.10;7.33;;;;;;;;;;4918453;29;20240;-78
2022/01/13 02:36:02;;;;;;;12.63;7.90;;;;;;;;;;4918972;29;20198;-79
2022/01/13 02:38:28;;;;;;;10.57;7.33;;;;;;;;;;4918799;29;20206;-78
2022/01/13 02:40:55;;;;;;;11.07;7.93;;;;;;;;;;4902703;29;20181;-78
2022/01/13 02:43:22;;;;;;;11.63;7.33;;;;;;;;;;4902775;29;20196;-79
2022/01/13 02:48:35;;;;;;;13.43;7.30;;;;;;;;;;4921526;29;20200;-78
2022/01/13 02:51:01;;;;;;;11.30;7.83;;;;;;;;;;4903279;29;20696;-78
2022/01/13 02:53:28;;;;;;;11.47;7.67;;;;;;;;;;4918656;29;20200;-78
2022/01/13 02:55:56;;;;;;;11.80;7.73;;;;;;;;;;4918667;29;20683;-78
2022/01/13 02:58:23;;;;;;;10.20;7.43;;;;;;;;;;4918083;29;20189;-79
2022/01/13 03:00:50;;;;;;;12.20;7.30;;;;;;;;;;4903517;29;20185;-78
2022/01/13 03:03:16;;;;;;;11.13;7.23;;;;;;;;;;4918509;29;20198;-78
2022/01/13 03:05:42;;;;;;;10.70;6.97;;;;;;;;;;4902885;29;20220;-79
2022/01/13 03:08:08;;;;;;;12.03;7.90;;;;;;;;;;4919066;29;20181;-78
2022/01/13 03:10:34;;;;;;;13.93;7.97;;;;;;;;;;4918325;29;20181;-79
2022/01/13 03:13:01;;;;;;;12.03;8.50;;;;;;;;;;4918755;29;20213;-78
2022/01/13 03:15:27;;;;;;;12.13;8.40;;;;;;;;;;4902821;29;20185;-78
2022/01/13 03:17:54;;;;;;;10.50;6.97;;;;;;;;;;4918427;29;20648;-78
2022/01/13 03:20:20;;;;;;;10.33;7.27;;;;;;;;;;4918539;29;20229;-78
2022/01/13 03:22:46;;;;;;;10.57;7.57;;;;;;;;;;4918407;29;20667;-78
2022/01/13 03:25:14;;;;;;;11.40;7.13;;;;;;;;;;4935263;29;20174;-78
2022/01/13 03:27:41;;;;;;;10.43;7.67;;;;;;;;;;4919985;29;20192;-78
2022/01/13 03:30:08;;;;;;;11.43;7.90;;;;;;;;;;4906148;29;20716;-77
2022/01/13 03:32:35;;;;;;;12.87;8.03;;;;;;;;;;4921787;29;20224;-78
2022/01/13 03:35:01;;;;;;;11.63;7.80;;;;;;;;;;4938688;29;20185;-78
2022/01/13 03:37:29;;;;;;;11.93;7.97;;;;;;;;;;4921720;29;20201;-79
2022/01/13 03:39:55;;;;;;;12.30;7.33;;;;;;;;;;4921984;29;20188;-78
2022/01/13 03:42:21;;;;;;;11.93;7.93;;;;;;;;;;4921772;29;20182;-78
2022/01/13 03:44:47;;;;;;;12.80;7.80;;;;;;;;;;4906102;29;20186;-78
2022/01/13 03:47:14;;;;;;;10.80;7.53;;;;;;;;;;4921766;29;20202;-79
2022/01/13 03:49:41;;;;;;;10.90;7.30;;;;;;;;;;4921569;29;20530;-78
2022/01/13 03:52:13;;;;;;;10.10;6.80;;;;;;;;;;4905783;29;20218;-79
2022/01/13 03:54:40;;;;;;;9.83;7.27;;;;;;;;;;4921237;29;20229;-79
2022/01/13 03:57:25;;;;;;;11.40;8.13;;;;;;;;;;4921367;29;20197;-79
2022/01/13 03:59:56;;;;;;;13.50;8.67;;;;;;;;;;4921285;29;20260;-78
2022/01/13 04:02:22;;;;;;;14.27;8.90;;;;;;;;;;4921363;29;20272;-78
2022/01/13 04:04:49;;;;;;;15.13;9.60;;;;;;;;;;4921055;29;20217;-78
2022/01/13 04:07:15;;;;;;;12.17;8.50;;;;;;;;;;4938087;29;20220;-78
2022/01/13 04:09:41;;;;;;;14.40;8.90;;;;;;;;;;4921324;29;20181;-78
2022/01/13 04:12:10;;;;;;;14.97;9.47;;;;;;;;;;4921491;29;20215;-78
2022/01/13 04:14:58;;;;;;;13.13;8.97;;;;;;;;;;4905318;29;20244;-78
2022/01/13 04:17:25;;;;;;;12.33;8.70;;;;;;;;;;4937916;29;20284;-78
2022/01/13 04:19:51;;;;;;;15.50;9.63;;;;;;;;;;4920857;29;20191;-78
2022/01/13 04:22:18;;;;;;;14.03;9.90;;;;;;;;;;4905299;29;20649;-78
2022/01/13 04:24:45;;;;;;;14.63;9.00;;;;;;;;;;4904937;29;20242;-78
2022/01/13 04:27:20;;;;;;;15.00;9.57;;;;;;;;;;4905117;29;20201;-78
2022/01/13 04:29:46;;;;;;;13.73;8.97;;;;;;;;;;4921203;29;20223;-78
2022/01/13 04:32:12;;;;;;;11.00;7.63;;;;;;;;;;4920845;29;20206;-78
2022/01/13 04:34:38;;;;;;;15.70;9.27;;;;;;;;;;4920362;29;20176;-77
2022/01/13 04:37:04;;;;;;;12.27;8.43;;;;;;;;;;4904821;29;20210;-77
2022/01/13 04:39:32;;;;;;;11.33;8.27;;;;;;;;;;4919904;29;20176;-78
2022/01/13 04:41:58;;;;;;;13.53;8.50;;;;;;;;;;4920933;29;20279;-78
2022/01/13 04:44:25;;;;;;;12.97;8.63;;;;;;;;;;4904760;29;20609;-78
2022/01/13 04:46:53;;;;;;;12.47;8.73;;;;;;;;;;4937599;29;20216;-78
2022/01/13 04:49:19;;;;;;;12.67;8.33;;;;;;;;;;4904798;29;20272;-78
2022/01/13 04:51:46;;;;;;;12.87;8.47;;;;;;;;;;4937343;29;20254;-78
2022/01/13 04:54:12;;;;;;;13.40;8.83;;;;;;;;;;4920000;29;20180;-79
2022/01/13 04:59:17;;;;;;;16.23;9.50;;;;;;;;;;4921754;29;20217;-78
2022/01/13 05:01:43;;;;;;;16.13;10.10;;;;;;;;;;4904539;29;20246;-78
2022/01/13 05:04:09;;;;;;;16.67;10.13;;;;;;;;;;4904497;29;20287;-78
2022/01/13 05:06:35;;;;;;;16.20;10.20;;;;;;;;;;4904281;29;20351;-78
2022/01/13 05:09:02;;;;;;;14.00;9.80;;;;;;;;;;4919963;29;20247;-78
2022/01/13 05:11:28;;;;;;;16.47;10.33;;;;;;;;;;4919978;29;20209;-78
2022/01/13 05:13:54;;;;;;;14.80;9.67;;;;;;;;;;4919581;29;20199;-78
2022/01/13 05:16:24;;;;;;;16.73;10.63;;;;;;;;;;4920134;29;20201;-78
2022/01/13 05:19:08;;;;;;;16.43;10.10;;;;;;;;;;4905306;29;20657;-79
2022/01/13 05:24:18;;;;;;;18.67;10.63;;;;;;;;;;4922361;29;20215;-78
2022/01/13 05:26:44;;;;;;;20.67;10.80;;;;;;;;;;4920043;29;20575;-78
2022/01/13 05:29:12;;;;;;;17.53;11.17;;;;;;;;;;4919683;29;20180;-78
2022/01/13 05:31:38;;;;;;;20.70;12.00;;;;;;;;;;4919579;29;20212;-78
2022/01/13 05:34:04;;;;;;;21.93;12.10;;;;;;;;;;4904022;29;20667;-78
2022/01/13 05:36:30;;;;;;;19.20;10.90;;;;;;;;;;4919367;29;20200;-78
2022/01/13 05:38:56;;;;;;;18.93;12.07;;;;;;;;;;4903900;29;20616;-77
2022/01/13 05:41:22;;;;;;;20.20;12.70;;;;;;;;;;4904420;29;20275;-78
2022/01/13 05:43:48;;;;;;;18.23;11.33;;;;;;;;;;4919299;29;20184;-78
2022/01/13 05:46:14;;;;;;;18.73;10.10;;;;;;;;;;4903909;29;20554;-78
2022/01/13 05:48:40;;;;;;;17.27;11.70;;;;;;;;;;4903947;29;20188;-77
2022/01/13 05:51:06;;;;;;;18.70;11.30;;;;;;;;;;4903584;29;20220;-78
2022/01/13 05:53:32;;;;;;;19.20;11.23;;;;;;;;;;4903307;29;20208;-78
2022/01/13 05:55:58;;;;;;;16.73;11.07;;;;;;;;;;4903673;29;20208;-78
2022/01/13 05:58:24;;;;;;;20.17;11.90;;;;;;;;;;4903485;29;20185;-78
2022/01/13 06:00:50;;;;;;;20.80;11.83;;;;;;;;;;4919123;29;20232;-78
2022/01/13 06:03:16;;;;;;;20.00;12.00;;;;;;;;;;4903339;29;20814;-78
2022/01/13 06:05:42;;;;;;;20.73;12.13;;;;;;;;;;4919578;29;20243;-78
2022/01/13 06:08:08;;;;;;;20.47;12.83;;;;;;;;;;4904456;29;20212;-78
2022/01/13 06:10:34;;;;;;;20.00;12.00;;;;;;;;;;4919176;29;20259;-81
2022/01/13 06:13:00;;;;;;;23.23;13.30;;;;;;;;;;4903048;29;20759;-81
2022/01/13 06:15:26;;;;;;;18.23;11.67;;;;;;;;;;4918544;29;20300;-81
2022/01/13 06:17:54;;;;;;;20.63;11.87;;;;;;;;;;4902916;29;20268;-81
2022/01/13 06:20:20;;;;;;;23.03;13.20;;;;;;;;;;4935770;29;20662;-81
2022/01/13 06:22:47;;;;;;;20.53;12.70;;;;;;;;;;4918582;29;20684;-81
2022/01/13 06:25:14;;;;;;;23.50;13.07;;;;;;;;;;4902690;29;20224;-81
2022/01/13 06:27:41;;;;;;;22.90;12.90;;;;;;;;;;4918870;29;20192;-81
2022/01/13 06:30:08;;;;;;;22.13;13.03;;;;;;;;;;4918859;29;20710;-82
2022/01/13 06:32:35;;;;;;;22.60;11.83;;;;;;;;;;4918729;29;20232;-82
2022/01/13 06:35:01;;;;;;;22.97;12.63;;;;;;;;;;4918670;29;20666;-82
2022/01/13 06:37:27;;;;;;;21.80;12.07;;;;;;;;;;4918842;29;20200;-82
2022/01/13 06:39:53;;;;;;;23.03;12.17;;;;;;;;;;4918891;29;20175;-82
2022/01/13 06:42:19;;;;;;;23.33;13.03;;;;;;;;;;4903217;29;20192;-82
2022/01/13 06:44:45;;;;;;;22.80;12.97;;;;;;;;;;4903189;29;20648;-81
2022/01/13 06:47:11;;;;;;;23.07;12.60;;;;;;;;;;4903366;29;20239;-82
2022/01/13 06:49:39;;;;;;;21.27;12.70;;;;;;;;;;4903371;29;20188;-82
2022/01/13 06:52:05;;;;;;;22.23;13.17;;;;;;;;;;4935883;29;20232;-82
2022/01/13 06:54:31;;;;;;;22.93;12.60;;;;;;;;;;4903357;29;20632;-81
2022/01/13 06:56:57;;;;;;;21.50;12.73;;;;;;;;;;4903045;29;20653;-82
2022/01/13 06:59:23;;;;;;;23.10;12.67;;;;;;;;;;4918881;29;20268;-81
2022/01/13 07:01:50;;;;;;;24.43;12.93;;;;;;;;;;4919574;29;20212;-82
2022/01/13 07:04:16;;;;;;;23.03;12.57;;;;;;;;;;4922790;29;20189;-82
2022/01/13 07:06:43;;;;;;;21.17;12.10;;;;;;;;;;4922791;29;20769;-82
2022/01/13 07:09:10;;;;;;;20.30;12.40;;;;;;;;;;4907601;29;20648;-82
2022/01/13 07:11:36;;;;;;;20.90;11.73;;;;;;;;;;4907677;29;20213;-82
2022/01/13 07:14:03;;;;;;;18.77;11.33;;;;;;;;;;4922920;29;20183;-81
2022/01/13 07:16:29;;;;;;;17.53;11.17;;;;;;;;;;4923241;29;20257;-82
2022/01/13 07:18:56;;;;;;;27.60;13.17;;;;;;;;;;4907752;29;20196;-82
2022/01/13 07:21:25;;;;;;;19.30;11.77;;;;;;;;;;4907921;29;20196;-82
2022/01/13 07:23:51;;;;;;;21.53;12.03;;;;;;;;;;4923442;29;20177;-81
2022/01/13 07:26:17;;;;;;;21.00;12.33;;;;;;;;;;4924360;29;20236;-82
2022/01/13 07:28:43;;;;;;;20.93;12.30;;;;;;;;;;4908434;29;20667;-82
2022/01/13 07:31:09;;;;;;;21.23;11.63;;;;;;;;;;4908446;29;20207;-82
2022/01/13 07:33:35;;;;;;;19.77;11.90;;;;;;;;;;4908418;29;20185;-82
2022/01/13 07:36:01;;;;;;;20.20;11.40;;;;;;;;;;4908669;29;20201;-82
2022/01/13 07:38:27;;;;;;;21.93;12.20;;;;;;;;;;4924495;29;20674;-82
2022/01/13 07:40:53;;;;;;;20.73;12.43;;;;;;;;;;4908518;29;20655;-82
2022/01/13 07:43:23;;;;;;;21.17;12.60;;;;;;;;;;4924407;29;20176;-82
2022/01/13 07:45:50;;;;;;;17.73;11.60;;;;;;;;;;4909276;29;20208;-81
2022/01/13 07:48:16;;;;;;;21.00;11.97;;;;;;;;;;4924655;29;20193;-82
2022/01/13 07:50:43;;;;;;;19.47;11.57;;;;;;;;;;4941906;29;20206;-82
2022/01/13 07:53:09;;;;;;;22.20;12.63;;;;;;;;;;4910459;29;20283;-82
2022/01/13 07:55:35;;;;;;;20.97;12.37;;;;;;;;;;4925598;29;20208;-82
2022/01/13 07:58:01;;;;;;;19.93;12.30;;;;;;;;;;4910115;29;20185;-82
2022/01/13 08:00:27;;;;;;;24.20;13.87;;;;;;;;;;4910029;29;20187;-82
2022/01/13 08:02:53;;;;;;;21.43;12.40;;;;;;;;;;4910206;29;20664;-82
2022/01/13 08:05:19;;;;;;;21.93;12.73;;;;;;;;;;4924886;29;20184;-82
2022/01/13 08:07:45;;;;;;;19.83;11.83;;;;;;;;;;4925278;29;20188;-82
2022/01/13 08:10:11;;;;;;;21.57;12.30;;;;;;;;;;4908014;29;20280;-82
2022/01/13 08:12:38;;;;;;;20.47;11.57;;;;;;;;;;4920855;29;20216;-81
2022/01/13 08:15:07;;;;;;;19.80;11.87;;;;;;;;;;4919791;29;20180;-82
2022/01/13 08:20:18;;;;;;;17.47;10.60;;;;;;;;;;4938213;29;20276;-82
2022/01/13 08:22:44;;;;;;;18.53;9.80;;;;;;;;;;4920869;29;20209;-82
2022/01/13 08:25:10;;;;;;;19.33;11.60;;;;;;;;;;4904825;29;20279;-81
2022/01/13 08:27:37;;;;;;;21.97;12.40;;;;;;;;;;4920762;29;20220;-82
2022/01/13 08:30:04;;;;;;;22.43;13.90;;;;;;;;;;4920363;29;20244;-81
2022/01/13 08:32:30;;;;;;;22.13;13.83;;;;;;;;;;4905046;29;20585;-82
2022/01/13 08:34:56;;;;;;;22.30;13.90;;;;;;;;;;4924804;29;20180;-82
2022/01/13 08:37:22;;;;;;;18.83;11.83;;;;;;;;;;4909473;29;20216;-82
2022/01/13 08:39:48;;;;;;;23.03;15.23;;;;;;;;;;4909438;29;20195;-82
2022/01/13 08:42:14;;;;;;;23.13;15.57;;;;;;;;;;4909945;29;20194;-82
2022/01/13 08:44:40;;;;;;;20.57;12.27;;;;;;;;;;4925741;29;20207;-82
2022/01/13 08:47:07;;;;;;;21.83;12.03;;;;;;;;;;4910502;29;20217;-81
2022/01/13 08:49:33;;;;;;;18.93;11.97;;;;;;;;;;4925492;29;20185;-82
2022/01/13 08:51:59;;;;;;;20.13;11.93;;;;;;;;;;4909087;29;20209;-82
2022/01/13 08:54:25;;;;;;;20.63;12.13;;;;;;;;;;4908794;29;20243;-82
2022/01/13 08:56:51;;;;;;;19.63;11.70;;;;;;;;;;4922600;29;20224;-82
2022/01/13 08:59:18;;;;;;;19.40;10.97;;;;;;;;;;4922959;29;20184;-81
2022/01/13 09:01:44;;;;;;;22.10;11.40;;;;;;;;;;4907383;29;20191;-82
2022/01/13 09:04:10;;;;;;;18.47;11.37;;;;;;;;;;4940897;29;20607;-82
2022/01/13 09:06:36;;;;;;;24.07;12.80;;;;;;;;;;4907895;29;20225;-82
2022/01/13 09:09:03;;;;;;;19.57;11.43;;;;;;;;;;4924339;29;20195;-82
2022/01/13 09:11:29;;;;;;;19.80;11.33;;;;;;;;;;4904399;29;20733;-82
2022/01/13 09:13:59;;;;;;;19.07;11.17;;;;;;;;;;4920075;29;20186;-81
2022/01/13 09:16:27;;;;;;;19.53;11.53;;;;;;;;;;4920118;29;20208;-81
2022/01/13 09:21:23;;;;;;;19.30;11.57;;;;;;;;;;4937220;29;20182;-81
2022/01/13 09:23:49;;;;;;;19.33;11.73;;;;;;;;;;4903910;29;20256;-82
2022/01/13 09:26:16;;;;;;;20.43;12.07;;;;;;;;;;4903981;29;20219;-82
2022/01/13 09:28:42;;;;;;;20.00;12.27;;;;;;;;;;4919894;29;20270;-82
2022/01/13 09:31:08;;;;;;;22.60;12.77;;;;;;;;;;4903833;29;20220;-82
2022/01/13 09:33:34;;;;;;;21.60;12.83;;;;;;;;;;4919244;29;20178;-82
2022/01/13 09:36:01;;;;;;;21.80;12.80;;;;;;;;;;4919364;29;20207;-82
2022/01/13 09:38:27;;;;;;;22.60;12.27;;;;;;;;;;4919145;29;20554;-82
2022/01/13 09:40:54;;;;;;;22.13;11.83;;;;;;;;;;4919439;29;20192;-82
2022/01/13 09:43:25;;;;;;;20.53;12.47;;;;;;;;;;4919006;29;20274;-82
2022/01/13 09:45:51;;;;;;;19.83;12.07;;;;;;;;;;4919031;29;20210;-82
2022/01/13 09:48:17;;;;;;;21.97;12.27;;;;;;;;;;4918994;29;20324;-82
2022/01/13 09:50:46;;;;;;;18.20;11.40;;;;;;;;;;4903444;29;20253;-81
2022/01/13 09:53:12;;;;;;;21.10;11.00;;;;;;;;;;4918916;29;20290;-81
2022/01/13 09:55:39;;;;;;;19.47;11.27;;;;;;;;;;4935965;29;20648;-81
2022/01/13 09:58:10;;;;;;;18.53;10.53;;;;;;;;;;4919412;29;20268;-81
2022/01/13 10:00:36;;;;;;;19.80;11.70;;;;;;;;;;4919126;29;20263;-81
2022/01/13 10:03:10;;;;;;;22.37;11.83;;;;;;;;;;4918976;29;20652;-81
2022/01/13 10:05:37;;;;;;;21.40;11.67;;;;;;;;;;4918718;29;20213;-82
2022/01/13 10:08:03;;;;;;;21.13;11.17;;;;;;;;;;4903492;29;20660;-82
2022/01/13 10:10:31;;;;;;;21.33;11.73;;;;;;;;;;4903209;29;20225;-82
2022/01/13 10:13:04;;;;;;;22.60;12.03;;;;;;;;;;4918926;29;20221;-82
2022/01/13 10:18:36;;;;;;;18.70;11.23;;;;;;;;;;4936108;29;20196;-81
2022/01/13 10:21:06;;;;;;;19.50;11.47;;;;;;;;;;4918907;29;20232;-81
2022/01/13 10:23:33;;;;;;;20.27;11.30;;;;;;;;;;4918624;29;20532;-81
2022/01/13 10:26:08;;;;;;;19.33;11.77;;;;;;;;;;4903091;29;20201;-81
2022/01/13 10:28:34;;;;;;;22.43;12.90;;;;;;;;;;4918703;29;20180;-81
2022/01/13 10:31:00;;;;;;;18.17;11.20;;;;;;;;;;4902765;29;20204;-81
2022/01/13 10:33:27;;;;;;;19.17;11.27;;;;;;;;;;4903038;29;20249;-81
2022/01/13 10:35:55;;;;;;;18.53;10.93;;;;;;;;;;4902902;29;20201;-81
2022/01/13 10:38:21;;;;;;;42.70;18.47;;;;;;;;;;4918109;29;20177;-81
2022/01/13 10:40:48;;;;;;;30.83;13.87;;;;;;;;;;4918275;29;20205;-81
2022/01/13 10:43:16;;;;;;;26.20;12.60;;;;;;;;;;4902473;29;20219;-81
2022/01/13 10:45:46;;;;;;;39.67;17.60;;;;;;;;;;4918653;29;20577;-81
2022/01/13 10:48:15;;;;;;;52.87;19.80;;;;;;;;;;4939211;29;20181;-81
2022/01/13 10:50:43;;;;;;;18.27;11.13;;;;;;;;;;4920745;29;20196;-81
2022/01/13 10:53:12;;;;;;;20.73;11.50;;;;;;;;;;4904591;29;20252;-81
2022/01/13 10:55:40;;;;;;;28.33;15.33;;;;;;;;;;4918496;29;20193;-81
2022/01/13 10:58:06;;;;;;;23.70;12.27;;;;;;;;;;4918495;29;20177;-81
2022/01/13 11:00:33;;;;;;;19.10;11.27;;;;;;;;;;4902937;29;20180;-81
2022/01/13 11:03:05;;;;;;;19.53;11.03;;;;;;;;;;4902894;29;20217;-81
2022/01/13 11:05:32;;;;;;;20.63;11.80;;;;;;;;;;4918068;29;20237;-81
2022/01/13 11:07:58;;;;;;;19.23;12.00;;;;;;;;;;4918208;29;20657;-81
2022/01/13 11:10:25;;;;;;;16.60;10.53;;;;;;;;;;4918820;29;20174;-81
2022/01/13 11:12:59;;;;;;;16.97;11.00;;;;;;;;;;4918206;29;20234;-81
2022/01/13 11:15:26;;;;;;;19.53;11.27;;;;;;;;;;4918405;29;20557;-81
2022/01/13 11:17:55;;;;;;;19.17;11.90;;;;;;;;;;4902692;29;20201;-81
2022/01/13 11:20:22;;;;;;;18.13;11.60;;;;;;;;;;4902752;29;20182;-81
2022/01/13 11:22:49;;;;;;;20.77;11.87;;;;;;;;;;4918544;29;20185;-81
2022/01/13 11:25:19;;;;;;;22.67;13.83;;;;;;;;;;4902429;29;20186;-81
2022/01/13 11:27:46;;;;;;;21.43;13.07;;;;;;;;;;4918584;29;20189;-81
2022/01/13 11:30:18;;;;;;;19.40;12.03;;;;;;;;;;4918244;29;20747;-81
2022/01/13 11:32:45;;;;;;;20.17;11.90;;;;;;;;;;4935135;29;20210;-81
2022/01/13 11:35:12;;;;;;;20.30;12.07;;;;;;;;;;4918026;29;20225;-80
2022/01/13 11:37:40;;;;;;;20.43;12.70;;;;;;;;;;4918209;29;20197;-80
2022/01/13 11:40:07;;;;;;;20.57;12.80;;;;;;;;;;4918392;29;20173;-81
2022/01/13 11:42:46;;;;;;;26.87;15.77;;;;;;;;;;4918607;29;20321;-81
2022/01/13 11:45:14;;;;;;;23.93;13.10;;;;;;;;;;4903347;29;20193;-81
2022/01/13 11:47:41;;;;;;;22.40;12.13;;;;;;;;;;4918460;29;20599;-81
2022/01/13 11:50:17;;;;;;;21.53;12.77;;;;;;;;;;4921996;29;20192;-81
2022/01/13 11:52:48;;;;;;;22.93;13.13;;;;;;;;;;4921443;29;20259;-81
2022/01/13 11:55:32;;;;;;;26.30;13.47;;;;;;;;;;4921215;29;20642;-80
2022/01/13 11:58:12;;;;;;;23.57;13.23;;;;;;;;;;4921379;29;20171;-80
2022/01/13 12:00:39;;;;;;;22.97;13.13;;;;;;;;;;4905730;29;20550;-80
2022/01/13 12:03:24;;;;;;;22.53;12.77;;;;;;;;;;4921471;29;20646;-80
2022/01/13 12:05:50;;;;;;;20.60;12.13;;;;;;;;;;4921624;29;20548;-81
2022/01/13 12:08:36;;;;;;;21.40;12.80;;;;;;;;;;4921488;29;20188;-81
2022/01/13 12:11:02;;;;;;;21.67;12.00;;;;;;;;;;4905882;29;20244;-81
2022/01/13 12:13:28;;;;;;;21.47;13.27;;;;;;;;;;4921082;29;20213;-80
2022/01/13 12:15:54;;;;;;;20.43;12.37;;;;;;;;;;4921111;29;20197;-80
2022/01/13 12:19:10;;;;;;;23.57;13.53;;;;;;;;;;4905520;29;20177;-80
2022/01/13 12:21:44;;;;;;;19.30;11.00;;;;;;;;;;4844992;29;20361;-80
2022/01/13 12:24:18;;;;;;;24.20;14.00;;;;;;;;;;4845673;29;20223;-80
2022/01/13 12:26:46;;;;;;;20.50;12.17;;;;;;;;;;4880364;29;20217;-80
2022/01/13 12:29:23;;;;;;;21.83;12.97;;;;;;;;;;4920653;29;20557;-80
2022/01/13 12:31:52;;;;;;;19.97;11.40;;;;;;;;;;4920508;29;20213;-80
2022/01/13 12:34:34;;;;;;;22.07;11.90;;;;;;;;;;4920665;29;20185;-80
2022/01/13 12:37:01;;;;;;;49.47;28.77;;;;;;;;;;4920545;29;20197;-80
2022/01/13 12:39:27;;;;;;;26.00;13.13;;;;;;;;;;4905174;29;20182;-81
2022/01/13 12:41:58;;;;;;;23.03;11.80;;;;;;;;;;4920321;29;20188;-80
2022/01/13 12:47:10;;;;;;;19.63;11.40;;;;;;;;;;4937825;29;20211;-80
2022/01/13 12:49:36;;;;;;;22.17;11.60;;;;;;;;;;4904624;29;20186;-80
2022/01/13 12:52:03;;;;;;;21.57;12.10;;;;;;;;;;4904681;29;20206;-80
2022/01/13 12:54:29;;;;;;;22.50;12.27;;;;;;;;;;4919986;29;20205;-80
2022/01/13 12:56:55;;;;;;;23.57;12.93;;;;;;;;;;4904699;29;20201;-80
2022/01/13 12:59:22;;;;;;;24.33;12.53;;;;;;;;;;4904788;29;20182;-80
2022/01/13 13:01:48;;;;;;;22.63;12.80;;;;;;;;;;4920293;29;20190;-80
2022/01/13 13:04:15;;;;;;;21.80;11.57;;;;;;;;;;4904271;29;20196;-80
2022/01/13 13:06:44;;;;;;;23.67;12.50;;;;;;;;;;4920040;29;20213;-80
2022/01/13 13:09:11;;;;;;;22.37;12.10;;;;;;;;;;4904673;29;20186;-80
2022/01/13 13:11:42;;;;;;;22.80;12.20;;;;;;;;;;4920339;29;20698;-80
2022/01/13 13:14:18;;;;;;;22.80;12.90;;;;;;;;;;4904552;29;20256;-80
2022/01/13 13:16:45;;;;;;;23.43;12.20;;;;;;;;;;4921058;29;20224;-80
2022/01/13 13:19:11;;;;;;;21.47;11.93;;;;;;;;;;4904416;29;20182;-80
2022/01/13 13:21:37;;;;;;;24.07;12.27;;;;;;;;;;4904270;29;20182;-80
2022/01/13 13:24:04;;;;;;;26.00;13.47;;;;;;;;;;4904406;29;20189;-80
2022/01/13 13:26:30;;;;;;;26.07;13.43;;;;;;;;;;4920035;29;20197;-80
2022/01/13 13:28:56;;;;;;;29.53;14.63;;;;;;;;;;4919701;29;20177;-80
2022/01/13 13:31:27;;;;;;;24.67;12.73;;;;;;;;;;4904240;29;20222;-80
2022/01/13 13:34:14;;;;;;;25.37;13.47;;;;;;;;;;4919494;29;20212;-80
2022/01/13 13:36:44;;;;;;;24.70;13.10;;;;;;;;;;4904080;29;20225;-80
2022/01/13 13:39:10;;;;;;;23.70;12.27;;;;;;;;;;4920072;29;20181;-80
2022/01/13 13:41:39;;;;;;;24.27;12.40;;;;;;;;;;4919473;29;20186;-80
2022/01/13 13:44:06;;;;;;;29.33;15.80;;;;;;;;;;4919231;29;20531;-80
2022/01/13 13:46:32;;;;;;;24.63;12.87;;;;;;;;;;4904026;29;20214;-80
2022/01/13 13:48:59;;;;;;;22.80;12.17;;;;;;;;;;4919664;29;20333;-80
2022/01/13 13:51:26;;;;;;;25.43;14.90;;;;;;;;;;4919573;29;20255;-80
2022/01/13 13:54:08;;;;;;;27.47;14.37;;;;;;;;;;4903792;29;20257;-80
2022/01/13 13:56:40;;;;;;;27.23;13.33;;;;;;;;;;4936199;29;20195;-80
2022/01/13 13:59:11;;;;;;;25.97;14.27;;;;;;;;;;4919119;29;20182;-80
2022/01/13 14:01:38;;;;;;;26.43;13.57;;;;;;;;;;4919309;29;20182;-80
2022/01/13 14:04:04;;;;;;;24.43;12.40;;;;;;;;;;4936134;29;20209;-80
2022/01/13 14:06:38;;;;;;;27.07;13.43;;;;;;;;;;4919068;29;20222;-80
2022/01/13 14:09:04;;;;;;;23.53;12.70;;;;;;;;;;4936234;29;20202;-80
2022/01/13 14:11:42;;;;;;;24.70;13.80;;;;;;;;;;4902429;29;20209;-80
2022/01/13 14:14:09;;;;;;;25.00;12.93;;;;;;;;;;4919136;29;20174;-80
2022/01/13 14:16:36;;;;;;;20.80;11.03;;;;;;;;;;4919095;29;20235;-80
2022/01/13 14:19:04;;;;;;;21.43;11.93;;;;;;;;;;4903952;29;20197;-80
2022/01/13 14:21:44;;;;;;;24.33;13.77;;;;;;;;;;4919054;29;20268;-80
2022/01/13 14:24:10;;;;;;;22.37;12.90;;;;;;;;;;4936026;29;20181;-80
2022/01/13 14:26:36;;;;;;;22.13;12.20;;;;;;;;;;4919258;29;20202;-80
2022/01/13 14:29:02;;;;;;;23.17;12.47;;;;;;;;;;4935997;29;20182;-80
2022/01/13 14:31:35;;;;;;;25.00;12.93;;;;;;;;;;4918623;29;20668;-80
2022/01/13 14:34:01;;;;;;;23.37;13.10;;;;;;;;;;4918952;29;20201;-80
2022/01/13 14:36:27;;;;;;;26.90;13.00;;;;;;;;;;4903126;29;20261;-80
2022/01/13 14:39:05;;;;;;;24.87;13.00;;;;;;;;;;4903216;29;20182;-80
2022/01/13 14:41:42;;;;;;;25.60;13.43;;;;;;;;;;4918994;29;20199;-80
2022/01/13 14:44:11;;;;;;;23.60;12.67;;;;;;;;;;4918755;29;20333;-80
2022/01/13 14:46:39;;;;;;;24.50;12.53;;;;;;;;;;4918429;29;20205;-80
2022/01/13 14:49:06;;;;;;;22.03;12.50;;;;;;;;;;4919111;29;20194;-80
2022/01/13 14:51:33;;;;;;;26.07;13.03;;;;;;;;;;4918506;29;20248;-80
2022/01/13 14:54:00;;;;;;;24.73;13.30;;;;;;;;;;4918063;29;20181;-80